createdAt,value
2022-08-12T00:02:51.361Z,4.05
2022-08-12T00:06:16.599Z,4.65
2022-08-12T00:09:40.155Z,4.67
2022-08-12T00:13:03.193Z,4.30
2022-08-12T00:16:26.689Z,4.68
2022-08-12T00:19:50.557Z,5.35
2022-08-12T00:23:13.116Z,5.55
2022-08-12T00:26:37.586Z,4.97
2022-08-12T00:30:01.792Z,5.05
2022-08-12T00:33:30.473Z,4.82
2022-08-12T00:37:07.263Z,5.30
2022-08-12T00:40:36.684Z,5.40
2022-08-12T00:43:44.341Z,4.63
2022-08-12T00:47:02.699Z,4.60
2022-08-12T00:50:08.892Z,5.20
2022-08-12T00:53:14.690Z,4.40
2022-08-12T00:56:28.333Z,4.53
2022-08-12T00:59:34.748Z,4.35
2022-08-12T01:02:41.897Z,4.00
2022-08-12T01:06:08.377Z,4.50
2022-08-12T01:09:34.660Z,4.18
2022-08-12T01:12:40.153Z,3.90
2022-08-12T01:15:47.381Z,3.72
2022-08-12T01:18:54.408Z,3.50
2022-08-12T01:22:49.459Z,3.10
2022-08-12T01:25:57.401Z,3.03
2022-08-12T01:29:04.017Z,3.33
2022-08-12T01:32:11.919Z,3.03
2022-08-12T01:35:21.313Z,2.95
2022-08-12T01:38:29.522Z,2.60
2022-08-12T01:41:44.175Z,3.47
2022-08-12T01:44:56.997Z,3.08
2022-08-12T01:48:55.316Z,2.42
2022-08-12T01:52:21.733Z,2.95
2022-08-12T01:55:34.259Z,2.80
2022-08-12T01:59:03.825Z,2.10
2022-08-12T02:02:12.245Z,3.10
2022-08-12T02:05:57.200Z,1.80
2022-08-12T02:09:23.288Z,2.28
2022-08-12T02:12:48.464Z,2.00
2022-08-12T02:16:04.271Z,2.08
2022-08-12T02:19:29.610Z,1.75
2022-08-12T02:22:39.492Z,2.03
2022-08-12T02:25:46.415Z,3.10
2022-08-12T02:28:53.156Z,1.83
2022-08-12T02:32:00.313Z,1.50
2022-08-12T02:35:05.388Z,1.70
2022-08-12T02:38:13.553Z,1.80
2022-08-12T02:41:22.760Z,2.10
2022-08-12T02:44:31.718Z,1.75
2022-08-12T02:47:59.374Z,1.92
2022-08-12T02:51:08.056Z,1.85
2022-08-12T02:54:13.867Z,1.98
2022-08-12T02:57:20.946Z,2.30
2022-08-12T03:00:27.441Z,1.85
2022-08-12T03:03:34.909Z,1.80
2022-08-12T03:06:44.907Z,1.70
2022-08-12T03:10:04.289Z,2.42
2022-08-12T03:13:13.619Z,2.20
2022-08-12T03:16:19.253Z,1.67
2022-08-12T03:19:25.564Z,1.60
2022-08-12T03:22:32.382Z,2.38
2022-08-12T03:25:40.923Z,1.80
2022-08-12T03:28:52.171Z,1.30
2022-08-12T03:32:03.193Z,1.38
2022-08-12T03:35:41.307Z,1.48
2022-08-12T03:38:45.131Z,1.95
2022-08-12T03:42:08.460Z,1.42
2022-08-12T03:45:51.960Z,1.40
2022-08-12T03:49:17.353Z,2.70
2022-08-12T03:52:40.719Z,1.73
2022-08-12T03:56:03.609Z,1.45
2022-08-12T03:59:26.979Z,1.35
2022-08-12T04:02:35.432Z,1.33
2022-08-12T04:05:55.164Z,1.45
2022-08-12T04:09:01.238Z,1.33
2022-08-12T04:12:26.227Z,1.75
2022-08-12T04:15:32.889Z,1.65
2022-08-12T04:18:41.253Z,1.70
2022-08-12T04:22:02.479Z,1.45
2022-08-12T04:25:10.451Z,1.13
2022-08-12T04:28:15.256Z,3.88
2022-08-12T04:31:19.945Z,1.65
2022-08-12T04:34:26.746Z,1.95
2022-08-12T04:37:58.982Z,1.38
2022-08-12T04:40:56.965Z,1.83
2022-08-12T04:44:02.670Z,1.83
2022-08-12T04:47:07.859Z,1.55
2022-08-12T04:50:34.755Z,1.30
2022-08-12T04:53:45.140Z,0.98
2022-08-12T04:57:03.232Z,0.68
2022-08-12T05:00:17.442Z,0.65
2022-08-12T05:03:22.596Z,0.90
2022-08-12T05:06:28.065Z,0.77
2022-08-12T05:10:00.998Z,1.63
2022-08-12T05:13:01.879Z,1.60
2022-08-12T05:16:09.248Z,1.20
2022-08-12T05:19:22.428Z,1.10
2022-08-12T05:22:28.566Z,1.15
2022-08-12T05:25:33.265Z,0.70
2022-08-12T05:28:38.388Z,0.57
2022-08-12T05:31:48.447Z,0.70
2022-08-12T05:34:54.642Z,0.60
2022-08-12T05:38:18.005Z,0.65
2022-08-12T05:41:27.469Z,0.70
2022-08-12T05:44:32.357Z,2.10
2022-08-12T05:47:53.318Z,0.93
2022-08-12T05:50:58.806Z,0.50
2022-08-12T05:57:12.468Z,0.50
2022-08-12T06:00:18.243Z,0.80
2022-08-12T06:03:23.039Z,0.30
2022-08-12T06:06:28.085Z,1.70
2022-08-12T06:09:33.248Z,6.40
2022-08-12T06:12:37.954Z,1.90
2022-08-12T06:15:45.237Z,1.00
2022-08-12T06:18:50.551Z,2.28
2022-08-12T06:21:55.793Z,0.60
2022-08-12T06:25:01.396Z,0.65
2022-08-12T06:28:21.455Z,0.60
2022-08-12T06:31:27.335Z,0.50
2022-08-12T06:35:26.884Z,0.60
2022-08-12T06:37:57.639Z,0.80
2022-08-12T06:41:21.266Z,0.90
2022-08-12T06:44:26.031Z,0.90
2022-08-12T06:47:30.689Z,0.70
2022-08-12T06:50:39.558Z,0.57
2022-08-12T06:53:45.083Z,0.80
2022-08-12T06:57:04.244Z,0.43
2022-08-12T07:00:12.317Z,0.60
2022-08-12T07:03:23.737Z,0.82
2022-08-12T07:06:30.282Z,0.90
2022-08-12T07:10:01.416Z,1.30
2022-08-12T07:13:04.230Z,1.27
2022-08-12T07:16:09.259Z,1.50
2022-08-12T07:19:13.726Z,0.88
2022-08-12T07:22:24.011Z,0.90
2022-08-12T07:25:41.493Z,0.70
2022-08-12T07:28:48.904Z,1.20
2022-08-12T07:31:54.062Z,0.85
2022-08-12T07:34:58.909Z,0.90
2022-08-12T07:38:03.750Z,0.50
2022-08-12T07:41:15.655Z,0.85
2022-08-12T07:44:20.715Z,0.70
2022-08-12T07:47:28.405Z,0.50
2022-08-12T07:50:33.378Z,0.40
2022-08-12T07:53:54.831Z,1.10
2022-08-12T07:57:05.655Z,0.70
2022-08-12T08:00:10.885Z,0.80
2022-08-12T08:03:18.561Z,1.13
2022-08-12T08:06:23.361Z,0.55
2022-08-12T08:09:28.335Z,0.68
2022-08-12T08:12:53.992Z,0.98
2022-08-12T08:16:03.393Z,0.70
2022-08-12T08:19:20.099Z,0.98
2022-08-12T08:22:40.613Z,0.63
2022-08-12T08:25:47.460Z,2.53
2022-08-12T08:31:59.547Z,0.50
2022-08-12T08:35:04.000Z,1.13
2022-08-12T08:38:14.738Z,1.10
2022-08-12T08:42:16.798Z,0.52
2022-08-12T08:45:19.940Z,0.57
2022-08-12T08:48:25.778Z,0.57
2022-08-12T08:51:30.437Z,0.55
2022-08-12T08:54:35.367Z,0.50
2022-08-12T09:00:51.586Z,0.50
2022-08-12T09:05:09.309Z,0.75
2022-08-12T09:07:51.399Z,0.60
2022-08-12T09:10:47.278Z,0.80
2022-08-12T09:14:11.948Z,0.70
2022-08-12T09:17:23.258Z,0.60
2022-08-12T09:20:34.113Z,0.70
2022-08-12T09:23:58.770Z,1.17
2022-08-12T09:27:03.533Z,0.70
2022-08-12T09:30:15.296Z,0.80
2022-08-12T09:34:27.532Z,0.80
2022-08-12T09:36:57.701Z,1.00
2022-08-12T09:40:57.333Z,0.77
2022-08-12T09:43:53.839Z,1.00
2022-08-12T09:47:10.611Z,0.80
2022-08-12T09:50:20.595Z,1.10
2022-08-12T09:53:36.245Z,0.85
2022-08-12T09:57:02.044Z,0.85
2022-08-12T10:00:27.515Z,0.88
2022-08-12T10:03:35.770Z,0.88
2022-08-12T10:07:00.336Z,0.85
2022-08-12T10:10:06.173Z,0.80
2022-08-12T10:13:37.140Z,1.02
2022-08-12T10:16:46.655Z,0.88
2022-08-12T10:19:53.369Z,1.10
2022-08-12T10:23:03.641Z,1.25
2022-08-12T10:26:37.279Z,1.40
2022-08-12T10:30:11.878Z,1.40
2022-08-12T10:33:17.988Z,1.88
2022-08-12T10:36:40.018Z,1.95
2022-08-12T10:40:06.257Z,2.30
2022-08-12T10:43:52.310Z,1.75
2022-08-12T10:46:56.356Z,1.50
2022-08-12T10:50:28.469Z,1.50
2022-08-12T10:53:45.401Z,5.40
2022-08-12T10:56:52.141Z,6.80
2022-08-12T11:00:35.084Z,6.10
2022-08-12T11:04:23.263Z,4.60
2022-08-12T11:07:06.649Z,5.03
2022-08-12T11:10:19.506Z,5.50
2022-08-12T11:13:45.803Z,6.05
2022-08-12T11:17:34.168Z,8.38
2022-08-12T11:20:30.774Z,8.57
2022-08-12T11:23:36.886Z,6.95
2022-08-12T11:26:42.397Z,9.90
2022-08-12T11:30:02.061Z,10.30
2022-08-12T11:33:12.255Z,10.23
2022-08-12T11:36:29.267Z,7.97
2022-08-12T11:43:18.936Z,8.10
2022-08-12T11:46:24.775Z,8.50
2022-08-12T11:49:31.115Z,7.13
2022-08-12T11:53:02.313Z,5.30
2022-08-12T11:56:02.627Z,3.93
2022-08-12T12:02:34.588Z,5.88
2022-08-12T12:05:45.812Z,7.57
2022-08-12T12:08:53.735Z,4.30
2022-08-12T12:11:58.660Z,4.95
2022-08-12T12:15:06.871Z,4.53
2022-08-12T12:18:30.995Z,4.22
2022-08-12T12:21:48.750Z,3.80
2022-08-12T12:24:53.955Z,3.47
2022-08-12T12:28:06.194Z,3.65
2022-08-12T12:31:14.594Z,4.10
2022-08-12T12:34:38.266Z,3.60
2022-08-12T12:38:12.016Z,3.17
2022-08-12T12:41:17.606Z,3.03
2022-08-12T12:44:25.995Z,3.30
2022-08-12T12:48:02.309Z,3.10
2022-08-12T12:51:48.869Z,3.38
2022-08-12T12:54:53.345Z,3.83
2022-08-12T12:58:01.009Z,3.25
2022-08-12T13:01:26.675Z,3.15
2022-08-12T13:04:37.583Z,3.60
2022-08-12T13:07:54.423Z,3.15
2022-08-12T13:11:02.354Z,2.50
2022-08-12T13:14:13.029Z,2.70
2022-08-12T13:18:02.486Z,3.03
2022-08-12T13:20:59.448Z,2.55
2022-08-12T13:24:09.533Z,2.72
2022-08-12T13:27:16.347Z,2.88
2022-08-12T13:30:30.387Z,2.95
2022-08-12T13:34:32.553Z,2.75
2022-08-12T13:37:03.192Z,3.00
2022-08-12T13:43:40.286Z,3.30
2022-08-12T13:46:58.402Z,3.42
2022-08-12T13:50:05.800Z,2.85
2022-08-12T13:53:24.157Z,3.20
2022-08-12T13:56:37.876Z,3.70
2022-08-12T13:59:48.668Z,3.20
2022-08-12T14:03:00.955Z,2.80
2022-08-12T14:06:07.805Z,2.95
2022-08-12T14:09:15.723Z,4.32
2022-08-12T14:12:25.719Z,3.90
2022-08-12T14:15:36.819Z,3.45
2022-08-12T14:18:48.557Z,3.47
2022-08-12T14:21:59.728Z,3.05
2022-08-12T14:25:07.164Z,3.42
2022-08-12T14:31:29.261Z,3.33
2022-08-12T14:37:55.868Z,3.45
2022-08-12T14:41:05.303Z,3.40
2022-08-12T14:44:56.994Z,3.03
2022-08-12T14:47:58.786Z,2.83
2022-08-12T14:52:55.672Z,3.20
2022-08-12T14:58:01.998Z,2.85
2022-08-12T15:01:25.937Z,2.30
2022-08-12T15:04:35.393Z,2.50
2022-08-12T15:07:50.113Z,8.38
2022-08-12T15:11:00.692Z,8.90
2022-08-12T15:14:06.799Z,8.40
2022-08-12T15:17:37.766Z,5.25
2022-08-12T15:20:40.148Z,4.80
2022-08-12T15:23:54.890Z,3.90
2022-08-12T15:27:09.553Z,5.32
2022-08-12T15:30:15.089Z,4.22
2022-08-12T15:33:24.427Z,4.20
2022-08-12T15:36:53.615Z,3.78
2022-08-12T15:40:01.324Z,3.28
2022-08-12T15:43:08.800Z,3.25
2022-08-12T15:46:17.375Z,2.63
2022-08-12T15:49:21.945Z,3.38
2022-08-12T15:55:46.246Z,3.10
2022-08-12T15:58:51.241Z,3.22
2022-08-12T16:02:00.489Z,2.75
2022-08-12T16:06:10.201Z,3.65
2022-08-12T16:08:33.728Z,2.65
2022-08-12T16:11:44.663Z,2.97
2022-08-12T16:14:53.237Z,2.05
2022-08-12T16:18:18.226Z,2.38
2022-08-12T16:21:50.618Z,2.23
2022-08-12T16:24:52.109Z,2.75
2022-08-12T16:27:57.370Z,3.22
2022-08-12T16:31:02.548Z,2.63
2022-08-12T16:34:10.824Z,2.72
2022-08-12T16:38:27.225Z,2.90
2022-08-12T16:40:59.802Z,2.63
2022-08-12T16:44:06.470Z,2.55
2022-08-12T16:47:18.806Z,2.70
2022-08-12T16:50:30.587Z,2.47
2022-08-12T16:53:44.074Z,2.72
2022-08-12T16:56:57.669Z,2.13
2022-08-12T17:00:03.990Z,2.47
2022-08-12T17:03:13.642Z,2.22
2022-08-12T17:06:33.578Z,2.15
2022-08-12T17:09:48.899Z,2.10
2022-08-12T17:12:57.039Z,1.95
2022-08-12T17:16:10.690Z,2.63
2022-08-12T17:20:29.263Z,2.72
2022-08-12T17:22:58.347Z,2.60
2022-08-12T17:26:04.281Z,2.50
2022-08-12T17:29:10.270Z,2.88
2022-08-12T17:32:22.201Z,2.33
2022-08-12T17:35:37.315Z,2.00
2022-08-12T17:38:45.211Z,2.13
2022-08-12T17:41:57.690Z,2.00
2022-08-12T17:45:17.822Z,1.98
2022-08-12T17:48:25.563Z,2.03
2022-08-12T17:51:49.968Z,2.10
2022-08-12T17:55:00.317Z,1.70
2022-08-12T17:58:06.834Z,1.70
2022-08-12T18:01:19.915Z,2.30
2022-08-12T18:04:36.075Z,1.48
2022-08-12T18:07:44.537Z,1.70
2022-08-12T18:11:12.887Z,1.90
2022-08-12T18:14:41.126Z,1.90
2022-08-12T18:17:50.389Z,1.60
2022-08-12T18:21:11.823Z,1.80
2022-08-12T18:24:21.885Z,1.80
2022-08-12T18:27:44.402Z,1.67
2022-08-12T18:30:54.636Z,2.10
2022-08-12T18:34:03.830Z,2.03
2022-08-12T18:37:29.446Z,3.22
2022-08-12T18:41:01.576Z,2.60
2022-08-12T18:44:11.102Z,2.63
2022-08-12T18:47:16.777Z,2.15
2022-08-12T18:50:25.195Z,1.73
2022-08-12T18:54:05.185Z,1.90
2022-08-12T18:56:59.524Z,1.90
2022-08-12T19:03:57.447Z,1.30
2022-08-12T19:07:05.509Z,2.55
2022-08-12T19:10:14.813Z,2.85
2022-08-12T19:13:39.874Z,2.47
2022-08-12T19:16:53.494Z,2.40
2022-08-12T19:20:04.792Z,1.67
2022-08-12T19:23:16.396Z,1.67
2022-08-12T19:26:27.904Z,1.73
2022-08-12T19:29:43.944Z,1.85
2022-08-12T19:32:49.470Z,1.65
2022-08-12T19:36:24.050Z,1.50
2022-08-12T19:39:29.802Z,2.00
2022-08-12T19:42:41.777Z,1.90
2022-08-12T19:45:54.020Z,1.85
2022-08-12T19:49:04.078Z,2.90
2022-08-12T19:52:12.683Z,2.35
2022-08-12T19:55:29.446Z,3.60
2022-08-12T19:58:42.716Z,3.38
2022-08-12T20:02:02.936Z,3.03
2022-08-12T20:06:05.251Z,2.03
2022-08-12T20:08:38.390Z,2.22
2022-08-12T20:12:11.272Z,2.15
2022-08-12T20:15:22.909Z,2.20
2022-08-12T20:18:44.391Z,2.90
2022-08-12T20:22:01.430Z,2.40
2022-08-12T20:25:09.850Z,2.58
2022-08-12T20:28:15.083Z,3.40
2022-08-12T20:31:22.671Z,3.50
2022-08-12T20:34:27.197Z,3.85
2022-08-12T20:38:06.371Z,3.23
2022-08-12T20:41:00.094Z,1.73
2022-08-12T20:44:04.985Z,1.52
2022-08-12T20:47:22.099Z,1.50
2022-08-12T20:50:29.313Z,1.40
2022-08-12T20:53:54.273Z,1.38
2022-08-12T20:57:01.163Z,1.70
2022-08-12T21:00:16.994Z,1.83
2022-08-12T21:03:52.704Z,1.35
2022-08-12T21:07:08.653Z,2.60
2022-08-12T21:10:16.422Z,1.90
2022-08-12T21:13:27.541Z,1.60
2022-08-12T21:16:35.878Z,1.60
2022-08-12T21:19:52.811Z,1.55
2022-08-12T21:22:59.103Z,1.60
2022-08-12T21:26:03.747Z,1.70
2022-08-12T21:29:17.926Z,1.90
2022-08-12T21:32:39.121Z,2.55
2022-08-12T21:35:52.396Z,1.27
2022-08-12T21:39:00.432Z,1.67
2022-08-12T21:42:08.641Z,1.60
2022-08-12T21:45:48.438Z,1.80
2022-08-12T21:48:40.849Z,1.38
2022-08-12T21:51:50.648Z,2.10
2022-08-12T21:54:56.444Z,2.10
2022-08-12T21:58:21.910Z,1.65
2022-08-12T22:01:27.733Z,1.80
2022-08-12T22:04:53.801Z,2.10
2022-08-12T22:08:00.830Z,1.80
2022-08-12T22:11:08.846Z,2.17
2022-08-12T22:14:22.015Z,2.00
2022-08-12T22:17:49.926Z,5.95
2022-08-12T22:20:56.453Z,4.32
2022-08-12T22:24:06.008Z,4.70
2022-08-12T22:27:28.596Z,4.90
2022-08-12T22:30:54.485Z,2.97
2022-08-12T22:34:00.525Z,2.60
2022-08-12T22:37:11.371Z,2.35
2022-08-12T22:40:32.217Z,5.70
2022-08-12T22:44:00.060Z,3.05
2022-08-12T22:47:45.826Z,2.72
2022-08-12T22:50:50.081Z,2.00
2022-08-12T22:54:00.443Z,1.77
2022-08-12T22:57:12.360Z,1.15
2022-08-12T23:00:23.898Z,1.83
2022-08-12T23:03:47.776Z,1.60
2022-08-12T23:06:57.675Z,1.88
2022-08-12T23:10:04.445Z,1.80
2022-08-12T23:13:28.096Z,2.75
2022-08-12T23:16:51.167Z,4.15
2022-08-12T23:19:57.583Z,1.90
2022-08-12T23:23:05.818Z,1.45
2022-08-12T23:26:15.478Z,1.67
2022-08-12T23:29:42.730Z,1.70
2022-08-12T23:32:54.091Z,2.10
2022-08-12T23:36:03.785Z,1.70
2022-08-12T23:40:13.643Z,1.92
2022-08-12T23:42:36.770Z,1.75
2022-08-12T23:46:01.119Z,1.60
2022-08-12T23:49:26.882Z,1.85
2022-08-12T23:52:34.947Z,1.77
2022-08-12T23:55:41.531Z,2.55
2022-08-12T23:58:57.699Z,2.00
